sensor_id;sensor_type;location;lat;lon;timestamp;P1;durP1;ratioP1;P2;durP2;ratioP2
13238;SDS011;6686;51.292;4.166;2022-12-08T00:00:18;8.90;;;5.97;;
13238;SDS011;6686;51.292;4.166;2022-12-08T00:03:04;9.33;;;5.67;;
13238;SDS011;6686;51.292;4.166;2022-12-08T00:05:49;11.10;;;6.30;;
13238;SDS011;6686;51.292;4.166;2022-12-08T00:08:54;8.77;;;6.10;;
13238;SDS011;6686;51.292;4.166;2022-12-08T00:12:02;10.43;;;6.40;;
13238;SDS011;6686;51.292;4.166;2022-12-08T00:14:47;9.13;;;6.30;;
13238;SDS011;6686;51.292;4.166;2022-12-08T00:17:32;11.40;;;7.67;;
13238;SDS011;6686;51.292;4.166;2022-12-08T00:20:18;10.13;;;7.17;;
13238;SDS011;6686;51.292;4.166;2022-12-08T00:23:04;14.47;;;8.90;;
13238;SDS011;6686;51.292;4.166;2022-12-08T00:25:49;8.80;;;6.97;;
13238;SDS011;6686;51.292;4.166;2022-12-08T00:28:35;14.20;;;10.83;;
13238;SDS011;6686;51.292;4.166;2022-12-08T00:31:20;12.97;;;9.83;;
13238;SDS011;6686;51.292;4.166;2022-12-08T00:34:06;14.63;;;9.30;;
13238;SDS011;6686;51.292;4.166;2022-12-08T00:36:52;16.33;;;10.40;;
13238;SDS011;6686;51.292;4.166;2022-12-08T00:39:38;16.57;;;11.23;;
13238;SDS011;6686;51.292;4.166;2022-12-08T00:42:24;15.50;;;12.63;;
13238;SDS011;6686;51.292;4.166;2022-12-08T00:45:10;18.07;;;11.83;;
13238;SDS011;6686;51.292;4.166;2022-12-08T00:47:56;21.40;;;13.23;;
13238;SDS011;6686;51.292;4.166;2022-12-08T00:50:42;19.07;;;12.30;;
13238;SDS011;6686;51.292;4.166;2022-12-08T00:53:27;19.20;;;13.00;;
13238;SDS011;6686;51.292;4.166;2022-12-08T00:56:13;21.37;;;12.90;;
13238;SDS011;6686;51.292;4.166;2022-12-08T00:58:59;18.48;;;14.23;;
13238;SDS011;6686;51.292;4.166;2022-12-08T01:01:45;18.90;;;13.13;;
13238;SDS011;6686;51.292;4.166;2022-12-08T01:04:30;19.53;;;12.50;;
13238;SDS011;6686;51.292;4.166;2022-12-08T01:07:16;26.23;;;12.57;;
13238;SDS011;6686;51.292;4.166;2022-12-08T01:10:02;16.30;;;11.90;;
13238;SDS011;6686;51.292;4.166;2022-12-08T01:12:48;18.27;;;11.73;;
13238;SDS011;6686;51.292;4.166;2022-12-08T01:15:33;16.60;;;11.73;;
13238;SDS011;6686;51.292;4.166;2022-12-08T01:18:19;17.40;;;11.50;;
13238;SDS011;6686;51.292;4.166;2022-12-08T01:21:05;15.43;;;10.67;;
13238;SDS011;6686;51.292;4.166;2022-12-08T01:23:50;17.67;;;11.90;;
13238;SDS011;6686;51.292;4.166;2022-12-08T01:26:36;13.93;;;9.60;;
13238;SDS011;6686;51.292;4.166;2022-12-08T01:29:22;12.83;;;7.70;;
13238;SDS011;6686;51.292;4.166;2022-12-08T01:32:08;13.40;;;7.77;;
13238;SDS011;6686;51.292;4.166;2022-12-08T01:34:53;9.50;;;7.40;;
13238;SDS011;6686;51.292;4.166;2022-12-08T01:37:39;13.17;;;8.30;;
13238;SDS011;6686;51.292;4.166;2022-12-08T01:40:25;7.73;;;6.17;;
13238;SDS011;6686;51.292;4.166;2022-12-08T01:43:15;8.73;;;5.70;;
13238;SDS011;6686;51.292;4.166;2022-12-08T01:46:00;6.43;;;5.60;;
13238;SDS011;6686;51.292;4.166;2022-12-08T01:48:46;7.83;;;4.47;;
13238;SDS011;6686;51.292;4.166;2022-12-08T01:51:32;9.60;;;4.60;;
13238;SDS011;6686;51.292;4.166;2022-12-08T01:54:17;6.33;;;4.83;;
13238;SDS011;6686;51.292;4.166;2022-12-08T01:57:05;7.13;;;4.83;;
13238;SDS011;6686;51.292;4.166;2022-12-08T01:59:51;8.20;;;5.33;;
13238;SDS011;6686;51.292;4.166;2022-12-08T02:02:43;9.52;;;6.20;;
13238;SDS011;6686;51.292;4.166;2022-12-08T02:05:24;7.50;;;6.60;;
13238;SDS011;6686;51.292;4.166;2022-12-08T02:08:10;11.17;;;6.57;;
13238;SDS011;6686;51.292;4.166;2022-12-08T02:10:55;12.43;;;8.27;;
13238;SDS011;6686;51.292;4.166;2022-12-08T02:13:41;12.43;;;7.27;;
13238;SDS011;6686;51.292;4.166;2022-12-08T02:16:48;10.27;;;6.83;;
13238;SDS011;6686;51.292;4.166;2022-12-08T02:23:11;16.73;;;8.63;;
13238;SDS011;6686;51.292;4.166;2022-12-08T02:34:59;13.13;;;8.37;;
13238;SDS011;6686;51.292;4.166;2022-12-08T02:37:47;11.27;;;7.93;;
13238;SDS011;6686;51.292;4.166;2022-12-08T02:40:34;12.93;;;7.33;;
13238;SDS011;6686;51.292;4.166;2022-12-08T02:43:25;13.20;;;7.17;;
13238;SDS011;6686;51.292;4.166;2022-12-08T02:46:24;11.03;;;7.13;;
13238;SDS011;6686;51.292;4.166;2022-12-08T02:48:58;7.47;;;6.10;;
13238;SDS011;6686;51.292;4.166;2022-12-08T02:51:44;9.53;;;6.63;;
13238;SDS011;6686;51.292;4.166;2022-12-08T02:54:29;8.03;;;6.50;;
13238;SDS011;6686;51.292;4.166;2022-12-08T02:57:26;7.27;;;6.07;;
13238;SDS011;6686;51.292;4.166;2022-12-08T03:00:13;9.77;;;5.50;;
13238;SDS011;6686;51.292;4.166;2022-12-08T03:09:09;7.53;;;5.57;;
13238;SDS011;6686;51.292;4.166;2022-12-08T03:11:56;10.23;;;5.60;;
13238;SDS011;6686;51.292;4.166;2022-12-08T03:14:41;9.77;;;5.47;;
13238;SDS011;6686;51.292;4.166;2022-12-08T03:17:27;6.60;;;5.30;;
13238;SDS011;6686;51.292;4.166;2022-12-08T03:20:13;8.37;;;5.17;;
13238;SDS011;6686;51.292;4.166;2022-12-08T03:22:57;8.13;;;4.83;;
13238;SDS011;6686;51.292;4.166;2022-12-08T03:25:47;7.13;;;4.97;;
13238;SDS011;6686;51.292;4.166;2022-12-08T03:28:29;7.30;;;5.43;;
13238;SDS011;6686;51.292;4.166;2022-12-08T03:31:15;6.90;;;5.20;;
13238;SDS011;6686;51.292;4.166;2022-12-08T03:34:01;6.60;;;5.00;;
13238;SDS011;6686;51.292;4.166;2022-12-08T03:36:47;6.07;;;5.23;;
13238;SDS011;6686;51.292;4.166;2022-12-08T03:39:32;5.30;;;4.80;;
13238;SDS011;6686;51.292;4.166;2022-12-08T03:42:18;5.43;;;4.70;;
13238;SDS011;6686;51.292;4.166;2022-12-08T03:45:04;8.13;;;4.30;;
13238;SDS011;6686;51.292;4.166;2022-12-08T03:47:50;9.70;;;4.00;;
13238;SDS011;6686;51.292;4.166;2022-12-08T03:50:35;5.77;;;4.20;;
13238;SDS011;6686;51.292;4.166;2022-12-08T03:53:21;4.40;;;3.80;;
13238;SDS011;6686;51.292;4.166;2022-12-08T03:56:14;5.60;;;4.07;;
13238;SDS011;6686;51.292;4.166;2022-12-08T03:59:04;6.53;;;3.97;;
13238;SDS011;6686;51.292;4.166;2022-12-08T04:01:50;5.83;;;4.33;;
13238;SDS011;6686;51.292;4.166;2022-12-08T04:04:35;6.00;;;3.87;;
13238;SDS011;6686;51.292;4.166;2022-12-08T04:07:21;7.73;;;4.47;;
13238;SDS011;6686;51.292;4.166;2022-12-08T04:10:06;9.40;;;4.97;;
13238;SDS011;6686;51.292;4.166;2022-12-08T04:12:52;9.07;;;4.30;;
13238;SDS011;6686;51.292;4.166;2022-12-08T04:15:38;6.97;;;4.63;;
13238;SDS011;6686;51.292;4.166;2022-12-08T04:18:24;5.73;;;4.03;;
13238;SDS011;6686;51.292;4.166;2022-12-08T04:21:09;6.70;;;4.70;;
13238;SDS011;6686;51.292;4.166;2022-12-08T04:23:55;6.93;;;4.63;;
13238;SDS011;6686;51.292;4.166;2022-12-08T04:26:41;6.53;;;4.70;;
13238;SDS011;6686;51.292;4.166;2022-12-08T04:29:27;9.33;;;5.13;;
13238;SDS011;6686;51.292;4.166;2022-12-08T04:32:12;7.00;;;4.63;;
13238;SDS011;6686;51.292;4.166;2022-12-08T04:34:58;9.40;;;5.67;;
13238;SDS011;6686;51.292;4.166;2022-12-08T04:37:43;11.47;;;5.30;;
13238;SDS011;6686;51.292;4.166;2022-12-08T04:40:29;6.90;;;4.37;;
13238;SDS011;6686;51.292;4.166;2022-12-08T04:43:15;7.87;;;5.30;;
13238;SDS011;6686;51.292;4.166;2022-12-08T04:46:00;8.17;;;5.07;;
13238;SDS011;6686;51.292;4.166;2022-12-08T04:48:46;12.53;;;5.57;;
13238;SDS011;6686;51.292;4.166;2022-12-08T04:51:32;10.20;;;4.97;;
13238;SDS011;6686;51.292;4.166;2022-12-08T04:54:18;8.73;;;5.00;;
13238;SDS011;6686;51.292;4.166;2022-12-08T04:57:04;6.50;;;5.10;;
13238;SDS011;6686;51.292;4.166;2022-12-08T04:59:49;8.00;;;4.83;;
13238;SDS011;6686;51.292;4.166;2022-12-08T05:02:35;5.40;;;4.77;;
13238;SDS011;6686;51.292;4.166;2022-12-08T05:05:20;7.73;;;5.40;;
13238;SDS011;6686;51.292;4.166;2022-12-08T05:08:06;9.80;;;5.23;;
13238;SDS011;6686;51.292;4.166;2022-12-08T05:10:52;6.57;;;5.33;;
13238;SDS011;6686;51.292;4.166;2022-12-08T05:13:37;9.52;;;5.78;;
13238;SDS011;6686;51.292;4.166;2022-12-08T05:16:23;6.47;;;5.77;;
13238;SDS011;6686;51.292;4.166;2022-12-08T05:19:09;8.83;;;5.27;;
13238;SDS011;6686;51.292;4.166;2022-12-08T05:21:54;8.30;;;5.10;;
13238;SDS011;6686;51.292;4.166;2022-12-08T05:24:40;7.63;;;5.07;;
13238;SDS011;6686;51.292;4.166;2022-12-08T05:27:25;7.23;;;5.43;;
13238;SDS011;6686;51.292;4.166;2022-12-08T05:30:11;9.40;;;6.50;;
13238;SDS011;6686;51.292;4.166;2022-12-08T05:32:57;8.90;;;6.43;;
13238;SDS011;6686;51.292;4.166;2022-12-08T05:35:42;7.57;;;5.40;;
13238;SDS011;6686;51.292;4.166;2022-12-08T05:38:28;6.30;;;5.70;;
13238;SDS011;6686;51.292;4.166;2022-12-08T05:41:16;6.67;;;5.60;;
13238;SDS011;6686;51.292;4.166;2022-12-08T05:44:03;7.73;;;5.23;;
13238;SDS011;6686;51.292;4.166;2022-12-08T05:46:49;9.20;;;5.50;;
13238;SDS011;6686;51.292;4.166;2022-12-08T05:49:34;10.23;;;5.90;;
13238;SDS011;6686;51.292;4.166;2022-12-08T05:52:20;8.20;;;5.70;;
13238;SDS011;6686;51.292;4.166;2022-12-08T05:55:06;7.53;;;4.93;;
13238;SDS011;6686;51.292;4.166;2022-12-08T05:57:51;8.17;;;4.83;;
13238;SDS011;6686;51.292;4.166;2022-12-08T06:00:37;8.27;;;4.53;;
13238;SDS011;6686;51.292;4.166;2022-12-08T06:03:23;6.50;;;5.05;;
13238;SDS011;6686;51.292;4.166;2022-12-08T06:06:09;6.67;;;4.63;;
13238;SDS011;6686;51.292;4.166;2022-12-08T06:08:55;7.83;;;5.20;;
13238;SDS011;6686;51.292;4.166;2022-12-08T06:11:41;7.20;;;4.30;;
13238;SDS011;6686;51.292;4.166;2022-12-08T06:14:26;6.77;;;4.27;;
13238;SDS011;6686;51.292;4.166;2022-12-08T06:17:12;6.20;;;4.30;;
13238;SDS011;6686;51.292;4.166;2022-12-08T06:19:57;5.97;;;4.40;;
13238;SDS011;6686;51.292;4.166;2022-12-08T06:22:43;6.07;;;4.10;;
13238;SDS011;6686;51.292;4.166;2022-12-08T06:25:29;5.67;;;4.10;;
13238;SDS011;6686;51.292;4.166;2022-12-08T06:28:14;6.10;;;4.67;;
13238;SDS011;6686;51.292;4.166;2022-12-08T06:31:05;6.90;;;4.03;;
13238;SDS011;6686;51.292;4.166;2022-12-08T06:33:46;5.03;;;4.07;;
13238;SDS011;6686;51.292;4.166;2022-12-08T06:36:31;6.85;;;4.90;;
13238;SDS011;6686;51.292;4.166;2022-12-08T06:39:17;9.43;;;4.37;;
13238;SDS011;6686;51.292;4.166;2022-12-08T06:42:03;6.50;;;4.30;;
13238;SDS011;6686;51.292;4.166;2022-12-08T06:45:07;9.37;;;4.30;;
13238;SDS011;6686;51.292;4.166;2022-12-08T06:47:53;7.57;;;4.50;;
13238;SDS011;6686;51.292;4.166;2022-12-08T06:50:38;6.90;;;4.93;;
13238;SDS011;6686;51.292;4.166;2022-12-08T06:53:24;7.33;;;5.50;;
13238;SDS011;6686;51.292;4.166;2022-12-08T06:56:10;8.87;;;5.40;;
13238;SDS011;6686;51.292;4.166;2022-12-08T06:58:55;7.83;;;4.90;;
13238;SDS011;6686;51.292;4.166;2022-12-08T07:01:41;8.60;;;4.83;;
13238;SDS011;6686;51.292;4.166;2022-12-08T07:04:27;6.73;;;5.37;;
13238;SDS011;6686;51.292;4.166;2022-12-08T07:07:13;11.87;;;5.30;;
13238;SDS011;6686;51.292;4.166;2022-12-08T07:09:58;10.10;;;4.53;;
13238;SDS011;6686;51.292;4.166;2022-12-08T07:12:44;6.90;;;4.10;;
13238;SDS011;6686;51.292;4.166;2022-12-08T07:15:29;4.93;;;4.10;;
13238;SDS011;6686;51.292;4.166;2022-12-08T07:18:15;9.13;;;4.27;;
13238;SDS011;6686;51.292;4.166;2022-12-08T07:21:06;7.97;;;4.73;;
13238;SDS011;6686;51.292;4.166;2022-12-08T07:23:48;4.27;;;3.53;;
13238;SDS011;6686;51.292;4.166;2022-12-08T07:26:33;5.83;;;4.10;;
13238;SDS011;6686;51.292;4.166;2022-12-08T07:29:19;5.23;;;3.70;;
13238;SDS011;6686;51.292;4.166;2022-12-08T07:32:06;5.00;;;3.17;;
13238;SDS011;6686;51.292;4.166;2022-12-08T07:34:50;4.33;;;3.00;;
13238;SDS011;6686;51.292;4.166;2022-12-08T07:37:36;5.47;;;3.00;;
13238;SDS011;6686;51.292;4.166;2022-12-08T07:40:21;4.43;;;3.20;;
13238;SDS011;6686;51.292;4.166;2022-12-08T07:43:07;6.07;;;3.13;;
13238;SDS011;6686;51.292;4.166;2022-12-08T07:45:53;8.83;;;2.80;;
13238;SDS011;6686;51.292;4.166;2022-12-08T07:48:39;4.83;;;2.80;;
13238;SDS011;6686;51.292;4.166;2022-12-08T07:51:24;4.03;;;2.93;;
13238;SDS011;6686;51.292;4.166;2022-12-08T07:54:13;5.13;;;2.77;;
13238;SDS011;6686;51.292;4.166;2022-12-08T07:56:58;4.20;;;3.23;;
13238;SDS011;6686;51.292;4.166;2022-12-08T07:59:44;6.97;;;3.53;;
13238;SDS011;6686;51.292;4.166;2022-12-08T08:02:29;5.67;;;3.60;;
13238;SDS011;6686;51.292;4.166;2022-12-08T08:05:15;7.90;;;4.07;;
13238;SDS011;6686;51.292;4.166;2022-12-08T08:08:01;5.23;;;4.07;;
13238;SDS011;6686;51.292;4.166;2022-12-08T08:10:47;6.78;;;4.60;;
13238;SDS011;6686;51.292;4.166;2022-12-08T08:13:32;7.67;;;4.50;;
13238;SDS011;6686;51.292;4.166;2022-12-08T08:16:18;7.87;;;4.90;;
13238;SDS011;6686;51.292;4.166;2022-12-08T08:19:04;8.07;;;4.60;;
13238;SDS011;6686;51.292;4.166;2022-12-08T08:21:49;7.47;;;5.10;;
13238;SDS011;6686;51.292;4.166;2022-12-08T08:24:35;11.13;;;5.10;;
13238;SDS011;6686;51.292;4.166;2022-12-08T08:27:21;10.80;;;7.00;;
13238;SDS011;6686;51.292;4.166;2022-12-08T08:30:08;15.47;;;8.50;;
13238;SDS011;6686;51.292;4.166;2022-12-08T08:32:53;21.47;;;11.23;;
13238;SDS011;6686;51.292;4.166;2022-12-08T08:35:38;20.73;;;12.23;;
13238;SDS011;6686;51.292;4.166;2022-12-08T08:38:24;28.13;;;14.00;;
13238;SDS011;6686;51.292;4.166;2022-12-08T08:41:10;31.55;;;17.08;;
13238;SDS011;6686;51.292;4.166;2022-12-08T08:43:55;38.13;;;17.40;;
13238;SDS011;6686;51.292;4.166;2022-12-08T08:46:41;26.53;;;13.97;;
13238;SDS011;6686;51.292;4.166;2022-12-08T08:49:27;21.07;;;13.00;;
13238;SDS011;6686;51.292;4.166;2022-12-08T08:52:12;24.10;;;12.80;;
13238;SDS011;6686;51.292;4.166;2022-12-08T08:54:58;19.67;;;13.60;;
13238;SDS011;6686;51.292;4.166;2022-12-08T08:57:44;17.00;;;11.07;;
13238;SDS011;6686;51.292;4.166;2022-12-08T09:00:29;16.80;;;9.30;;
13238;SDS011;6686;51.292;4.166;2022-12-08T09:03:15;15.23;;;9.60;;
13238;SDS011;6686;51.292;4.166;2022-12-08T09:06:00;12.97;;;7.80;;
13238;SDS011;6686;51.292;4.166;2022-12-08T09:08:46;11.10;;;7.07;;
13238;SDS011;6686;51.292;4.166;2022-12-08T09:11:31;12.30;;;7.60;;
13238;SDS011;6686;51.292;4.166;2022-12-08T09:14:18;12.47;;;7.47;;
13238;SDS011;6686;51.292;4.166;2022-12-08T09:17:04;14.10;;;8.17;;
13238;SDS011;6686;51.292;4.166;2022-12-08T09:19:49;12.53;;;8.13;;
13238;SDS011;6686;51.292;4.166;2022-12-08T09:22:35;12.97;;;8.37;;
13238;SDS011;6686;51.292;4.166;2022-12-08T09:25:20;13.20;;;7.67;;
13238;SDS011;6686;51.292;4.166;2022-12-08T09:28:06;10.33;;;7.70;;
13238;SDS011;6686;51.292;4.166;2022-12-08T09:30:52;13.57;;;7.70;;
13238;SDS011;6686;51.292;4.166;2022-12-08T09:33:37;11.17;;;6.77;;
13238;SDS011;6686;51.292;4.166;2022-12-08T09:36:24;10.63;;;7.55;;
13238;SDS011;6686;51.292;4.166;2022-12-08T09:39:09;9.68;;;6.35;;
13238;SDS011;6686;51.292;4.166;2022-12-08T09:42:01;8.30;;;4.47;;
13238;SDS011;6686;51.292;4.166;2022-12-08T09:44:49;10.90;;;4.90;;
13238;SDS011;6686;51.292;4.166;2022-12-08T09:47:38;6.43;;;3.27;;
13238;SDS011;6686;51.292;4.166;2022-12-08T09:50:31;7.30;;;3.37;;
13238;SDS011;6686;51.292;4.166;2022-12-08T09:53:20;5.87;;;3.60;;
13238;SDS011;6686;51.292;4.166;2022-12-08T09:56:11;6.57;;;3.97;;
13238;SDS011;6686;51.292;4.166;2022-12-08T09:58:59;15.70;;;7.17;;
13238;SDS011;6686;51.292;4.166;2022-12-08T10:01:44;9.07;;;4.53;;
13238;SDS011;6686;51.292;4.166;2022-12-08T10:04:33;10.50;;;6.07;;
13238;SDS011;6686;51.292;4.166;2022-12-08T10:07:26;5.60;;;3.50;;
13238;SDS011;6686;51.292;4.166;2022-12-08T10:13:30;6.00;;;5.03;;
13238;SDS011;6686;51.292;4.166;2022-12-08T10:19:10;5.50;;;4.80;;
13238;SDS011;6686;51.292;4.166;2022-12-08T10:21:54;5.33;;;4.50;;
13238;SDS011;6686;51.292;4.166;2022-12-08T10:24:43;6.43;;;4.33;;
13238;SDS011;6686;51.292;4.166;2022-12-08T10:27:26;5.50;;;3.93;;
13238;SDS011;6686;51.292;4.166;2022-12-08T10:30:13;7.10;;;5.07;;
13238;SDS011;6686;51.292;4.166;2022-12-08T10:32:58;6.13;;;4.87;;
13238;SDS011;6686;51.292;4.166;2022-12-08T10:35:48;8.70;;;4.53;;
13238;SDS011;6686;51.292;4.166;2022-12-08T10:38:34;2.50;;;2.03;;
13238;SDS011;6686;51.292;4.166;2022-12-08T10:41:18;1.67;;;1.57;;
13238;SDS011;6686;51.292;4.166;2022-12-08T10:44:04;3.27;;;2.93;;
13238;SDS011;6686;51.292;4.166;2022-12-08T10:46:50;3.33;;;1.90;;
13238;SDS011;6686;51.292;4.166;2022-12-08T10:49:35;2.30;;;1.70;;
13238;SDS011;6686;51.292;4.166;2022-12-08T10:52:22;1.50;;;1.40;;
13238;SDS011;6686;51.292;4.166;2022-12-08T10:55:17;2.37;;;1.80;;
13238;SDS011;6686;51.292;4.166;2022-12-08T10:58:02;4.00;;;1.70;;
13238;SDS011;6686;51.292;4.166;2022-12-08T11:00:47;2.75;;;2.05;;
13238;SDS011;6686;51.292;4.166;2022-12-08T11:03:33;2.50;;;1.50;;
13238;SDS011;6686;51.292;4.166;2022-12-08T11:06:19;2.30;;;1.50;;
13238;SDS011;6686;51.292;4.166;2022-12-08T11:12:05;1.47;;;1.33;;
13238;SDS011;6686;51.292;4.166;2022-12-08T11:15:00;3.67;;;1.37;;
13238;SDS011;6686;51.292;4.166;2022-12-08T11:17:39;6.40;;;2.40;;
13238;SDS011;6686;51.292;4.166;2022-12-08T11:20:24;2.23;;;1.90;;
13238;SDS011;6686;51.292;4.166;2022-12-08T11:23:20;3.37;;;2.03;;
13238;SDS011;6686;51.292;4.166;2022-12-08T11:26:16;3.37;;;1.80;;
13238;SDS011;6686;51.292;4.166;2022-12-08T11:28:57;3.87;;;1.80;;
13238;SDS011;6686;51.292;4.166;2022-12-08T11:31:44;1.80;;;1.70;;
13238;SDS011;6686;51.292;4.166;2022-12-08T11:37:39;3.00;;;1.90;;
13238;SDS011;6686;51.292;4.166;2022-12-08T11:40:30;3.13;;;2.00;;
13238;SDS011;6686;51.292;4.166;2022-12-08T11:49:43;1.63;;;1.53;;
13238;SDS011;6686;51.292;4.166;2022-12-08T11:52:35;1.10;;;1.00;;
13238;SDS011;6686;51.292;4.166;2022-12-08T11:58:34;1.17;;;1.10;;
13238;SDS011;6686;51.292;4.166;2022-12-08T12:01:21;0.57;;;0.57;;
13238;SDS011;6686;51.292;4.166;2022-12-08T12:04:10;0.50;;;0.50;;
13238;SDS011;6686;51.292;4.166;2022-12-08T12:19:14;1.20;;;1.10;;
13238;SDS011;6686;51.292;4.166;2022-12-08T12:22:00;7.63;;;6.00;;
13238;SDS011;6686;51.292;4.166;2022-12-08T12:24:45;4.47;;;3.27;;
13238;SDS011;6686;51.292;4.166;2022-12-08T12:27:39;3.00;;;1.93;;
13238;SDS011;6686;51.292;4.166;2022-12-08T12:30:25;1.17;;;1.00;;
13238;SDS011;6686;51.292;4.166;2022-12-08T12:33:10;3.93;;;1.03;;
13238;SDS011;6686;51.292;4.166;2022-12-08T12:35:56;0.70;;;0.70;;
13238;SDS011;6686;51.292;4.166;2022-12-08T12:38:46;0.77;;;0.70;;
13238;SDS011;6686;51.292;4.166;2022-12-08T12:41:46;2.10;;;0.80;;
13238;SDS011;6686;51.292;4.166;2022-12-08T12:44:42;0.67;;;0.60;;
13238;SDS011;6686;51.292;4.166;2022-12-08T12:47:45;3.00;;;1.95;;
13238;SDS011;6686;51.292;4.166;2022-12-08T12:56:03;1.13;;;0.77;;
13238;SDS011;6686;51.292;4.166;2022-12-08T12:58:48;2.63;;;1.07;;
13238;SDS011;6686;51.292;4.166;2022-12-08T13:01:35;0.70;;;0.60;;
13238;SDS011;6686;51.292;4.166;2022-12-08T13:04:27;2.03;;;0.73;;
13238;SDS011;6686;51.292;4.166;2022-12-08T13:07:06;1.33;;;1.00;;
13238;SDS011;6686;51.292;4.166;2022-12-08T13:10:03;1.40;;;1.10;;
13238;SDS011;6686;51.292;4.166;2022-12-08T13:13:06;1.67;;;1.20;;
13238;SDS011;6686;51.292;4.166;2022-12-08T13:15:51;1.80;;;1.30;;
13238;SDS011;6686;51.292;4.166;2022-12-08T13:18:49;1.23;;;1.00;;
13238;SDS011;6686;51.292;4.166;2022-12-08T13:21:37;2.47;;;1.00;;
13238;SDS011;6686;51.292;4.166;2022-12-08T13:33:32;0.90;;;0.90;;
13238;SDS011;6686;51.292;4.166;2022-12-08T13:36:21;1.20;;;1.10;;
13238;SDS011;6686;51.292;4.166;2022-12-08T13:39:06;3.83;;;1.07;;
13238;SDS011;6686;51.292;4.166;2022-12-08T13:42:01;1.20;;;1.10;;
13238;SDS011;6686;51.292;4.166;2022-12-08T13:47:56;3.60;;;1.87;;
13238;SDS011;6686;51.292;4.166;2022-12-08T13:50:52;1.90;;;1.70;;
13238;SDS011;6686;51.292;4.166;2022-12-08T13:53:40;4.17;;;2.13;;
13238;SDS011;6686;51.292;4.166;2022-12-08T13:56:25;4.60;;;1.70;;
13238;SDS011;6686;51.292;4.166;2022-12-08T13:59:30;1.80;;;1.50;;
13238;SDS011;6686;51.292;4.166;2022-12-08T14:02:17;2.40;;;1.70;;
13238;SDS011;6686;51.292;4.166;2022-12-08T14:05:00;4.40;;;1.67;;
13238;SDS011;6686;51.292;4.166;2022-12-08T14:07:47;1.90;;;1.70;;
13238;SDS011;6686;51.292;4.166;2022-12-08T14:10:32;2.53;;;2.10;;
13238;SDS011;6686;51.292;4.166;2022-12-08T14:13:18;1.90;;;1.80;;
13238;SDS011;6686;51.292;4.166;2022-12-08T14:16:04;2.67;;;1.80;;
13238;SDS011;6686;51.292;4.166;2022-12-08T14:18:50;2.07;;;1.60;;
13238;SDS011;6686;51.292;4.166;2022-12-08T14:21:35;2.00;;;1.37;;
13238;SDS011;6686;51.292;4.166;2022-12-08T14:24:28;3.07;;;2.37;;
13238;SDS011;6686;51.292;4.166;2022-12-08T14:27:11;1.77;;;1.60;;
13238;SDS011;6686;51.292;4.166;2022-12-08T14:29:56;3.30;;;1.83;;
13238;SDS011;6686;51.292;4.166;2022-12-08T14:35:33;2.90;;;2.20;;
13238;SDS011;6686;51.292;4.166;2022-12-08T14:38:19;3.53;;;2.20;;
13238;SDS011;6686;51.292;4.166;2022-12-08T14:41:05;5.40;;;2.23;;
13238;SDS011;6686;51.292;4.166;2022-12-08T14:43:57;3.47;;;2.03;;
13238;SDS011;6686;51.292;4.166;2022-12-08T14:47:01;3.57;;;2.33;;
13238;SDS011;6686;51.292;4.166;2022-12-08T14:49:32;6.03;;;2.00;;
13238;SDS011;6686;51.292;4.166;2022-12-08T14:52:17;3.70;;;2.20;;
13238;SDS011;6686;51.292;4.166;2022-12-08T14:55:02;4.07;;;2.50;;
13238;SDS011;6686;51.292;4.166;2022-12-08T14:57:48;5.40;;;2.60;;
13238;SDS011;6686;51.292;4.166;2022-12-08T15:00:33;2.47;;;2.00;;
13238;SDS011;6686;51.292;4.166;2022-12-08T15:03:20;2.40;;;2.17;;
13238;SDS011;6686;51.292;4.166;2022-12-08T15:06:05;6.00;;;2.30;;
13238;SDS011;6686;51.292;4.166;2022-12-08T15:08:55;5.03;;;2.47;;
13238;SDS011;6686;51.292;4.166;2022-12-08T15:11:40;4.33;;;3.00;;
13238;SDS011;6686;51.292;4.166;2022-12-08T15:14:33;5.60;;;3.03;;
13238;SDS011;6686;51.292;4.166;2022-12-08T15:17:27;4.90;;;3.00;;
13238;SDS011;6686;51.292;4.166;2022-12-08T15:26:19;2.60;;;2.40;;
13238;SDS011;6686;51.292;4.166;2022-12-08T15:29:17;3.40;;;2.60;;
13238;SDS011;6686;51.292;4.166;2022-12-08T15:31:55;5.37;;;2.40;;
13238;SDS011;6686;51.292;4.166;2022-12-08T15:34:40;5.93;;;2.70;;
13238;SDS011;6686;51.292;4.166;2022-12-08T15:37:26;3.73;;;2.53;;
13238;SDS011;6686;51.292;4.166;2022-12-08T15:40:16;4.40;;;3.00;;
13238;SDS011;6686;51.292;4.166;2022-12-08T15:43:01;5.35;;;3.20;;
13238;SDS011;6686;51.292;4.166;2022-12-08T15:45:47;3.30;;;2.70;;
13238;SDS011;6686;51.292;4.166;2022-12-08T15:48:32;7.03;;;3.40;;
13238;SDS011;6686;51.292;4.166;2022-12-08T15:51:17;5.57;;;3.70;;
13238;SDS011;6686;51.292;4.166;2022-12-08T15:54:03;6.27;;;4.57;;
13238;SDS011;6686;51.292;4.166;2022-12-08T15:56:49;4.87;;;4.37;;
13238;SDS011;6686;51.292;4.166;2022-12-08T15:59:34;8.53;;;5.27;;
13238;SDS011;6686;51.292;4.166;2022-12-08T16:02:20;8.17;;;5.30;;
13238;SDS011;6686;51.292;4.166;2022-12-08T16:05:06;6.87;;;5.13;;
13238;SDS011;6686;51.292;4.166;2022-12-08T16:07:52;11.73;;;6.37;;
13238;SDS011;6686;51.292;4.166;2022-12-08T16:10:41;10.10;;;6.70;;
13238;SDS011;6686;51.292;4.166;2022-12-08T16:13:26;10.57;;;6.27;;
13238;SDS011;6686;51.292;4.166;2022-12-08T16:16:30;10.63;;;6.73;;
13238;SDS011;6686;51.292;4.166;2022-12-08T16:19:15;10.53;;;6.63;;
13238;SDS011;6686;51.292;4.166;2022-12-08T16:22:04;11.30;;;6.57;;
13238;SDS011;6686;51.292;4.166;2022-12-08T16:24:49;12.40;;;6.33;;
13238;SDS011;6686;51.292;4.166;2022-12-08T16:27:39;12.97;;;7.10;;
13238;SDS011;6686;51.292;4.166;2022-12-08T16:30:25;9.50;;;6.80;;
13238;SDS011;6686;51.292;4.166;2022-12-08T16:33:11;10.23;;;6.60;;
13238;SDS011;6686;51.292;4.166;2022-12-08T16:35:56;8.87;;;6.27;;
13238;SDS011;6686;51.292;4.166;2022-12-08T16:38:42;10.40;;;6.83;;
13238;SDS011;6686;51.292;4.166;2022-12-08T16:41:28;10.67;;;6.80;;
13238;SDS011;6686;51.292;4.166;2022-12-08T16:44:32;9.77;;;6.60;;
13238;SDS011;6686;51.292;4.166;2022-12-08T16:47:17;9.93;;;6.67;;
13238;SDS011;6686;51.292;4.166;2022-12-08T16:50:12;7.43;;;5.83;;
13238;SDS011;6686;51.292;4.166;2022-12-08T16:52:57;6.60;;;5.33;;
13238;SDS011;6686;51.292;4.166;2022-12-08T16:55:44;6.07;;;5.33;;
13238;SDS011;6686;51.292;4.166;2022-12-08T16:58:30;7.00;;;5.03;;
13238;SDS011;6686;51.292;4.166;2022-12-08T17:01:18;5.83;;;4.60;;
13238;SDS011;6686;51.292;4.166;2022-12-08T17:04:04;5.70;;;4.93;;
13238;SDS011;6686;51.292;4.166;2022-12-08T17:06:50;5.43;;;4.37;;
13238;SDS011;6686;51.292;4.166;2022-12-08T17:09:35;6.33;;;5.03;;
13238;SDS011;6686;51.292;4.166;2022-12-08T17:12:21;6.20;;;5.60;;
13238;SDS011;6686;51.292;4.166;2022-12-08T17:15:08;8.77;;;6.15;;
13238;SDS011;6686;51.292;4.166;2022-12-08T17:17:53;7.80;;;6.30;;
13238;SDS011;6686;51.292;4.166;2022-12-08T17:20:39;7.93;;;6.87;;
13238;SDS011;6686;51.292;4.166;2022-12-08T17:23:27;9.63;;;6.30;;
13238;SDS011;6686;51.292;4.166;2022-12-08T17:26:13;7.70;;;5.90;;
13238;SDS011;6686;51.292;4.166;2022-12-08T17:29:00;8.50;;;6.07;;
13238;SDS011;6686;51.292;4.166;2022-12-08T17:31:44;8.30;;;7.30;;
13238;SDS011;6686;51.292;4.166;2022-12-08T17:34:36;11.60;;;7.30;;
13238;SDS011;6686;51.292;4.166;2022-12-08T17:37:18;8.70;;;7.87;;
13238;SDS011;6686;51.292;4.166;2022-12-08T17:40:04;9.37;;;8.07;;
13238;SDS011;6686;51.292;4.166;2022-12-08T17:42:50;9.60;;;7.17;;
13238;SDS011;6686;51.292;4.166;2022-12-08T17:45:41;10.90;;;8.00;;
13238;SDS011;6686;51.292;4.166;2022-12-08T17:48:27;11.50;;;7.93;;
13238;SDS011;6686;51.292;4.166;2022-12-08T17:51:12;14.80;;;10.37;;
13238;SDS011;6686;51.292;4.166;2022-12-08T17:53:58;10.10;;;7.90;;
13238;SDS011;6686;51.292;4.166;2022-12-08T17:56:44;12.47;;;8.57;;
13238;SDS011;6686;51.292;4.166;2022-12-08T17:59:30;9.57;;;8.00;;
13238;SDS011;6686;51.292;4.166;2022-12-08T18:02:16;8.90;;;7.77;;
13238;SDS011;6686;51.292;4.166;2022-12-08T18:05:01;10.20;;;8.10;;
13238;SDS011;6686;51.292;4.166;2022-12-08T18:07:47;10.03;;;8.80;;
13238;SDS011;6686;51.292;4.166;2022-12-08T18:10:33;10.30;;;8.50;;
13238;SDS011;6686;51.292;4.166;2022-12-08T18:13:19;10.47;;;8.13;;